Murdock, Nebraska
Current Conditions -  °F | °C
As of 11:35 PM on Sunday 19 Oct 2014 (Local Time) from KPMV Reporting Station
Clear Clear  
Wind Chill: 57°   Ceiling: Unl
Heat Index: 57°   Visibility: 10mi
Dew Point: 46°   Wind: 7mph
Humidity: 67%   Direction: 230°SW
Pressure: 29.96"   Gusts: NA
Location:  40.93°N, 96.28°W
Report Text: KPMV 200435Z AUTO 23006KT 10SM CLR 14/08 A2996 RMK AO2 T01400080
Loading
Personal Weather Stations






























Interactive Weather Map New forecast layout! Learn more

10-Day Weather Forecast

Advertisements
Track Severe Weather on mobile